sensor_id;sensor_type;location;lat;lon;timestamp;P1;durP1;ratioP1;P2;durP2;ratioP2
67819;SDS011;54618;52.018;5.576;2023-03-24T00:01:00;2.65;;;1.00;;
67819;SDS011;54618;52.018;5.576;2023-03-24T00:03:27;4.03;;;1.02;;
67819;SDS011;54618;52.018;5.576;2023-03-24T00:05:54;1.95;;;0.95;;
67819;SDS011;54618;52.018;5.576;2023-03-24T00:08:26;2.60;;;0.98;;
67819;SDS011;54618;52.018;5.576;2023-03-24T00:11:02;2.63;;;1.10;;
67819;SDS011;54618;52.018;5.576;2023-03-24T00:13:31;2.97;;;1.10;;
67819;SDS011;54618;52.018;5.576;2023-03-24T00:16:02;2.20;;;0.98;;
67819;SDS011;54618;52.018;5.576;2023-03-24T00:18:29;2.45;;;1.08;;
67819;SDS011;54618;52.018;5.576;2023-03-24T00:20:56;1.85;;;1.00;;
67819;SDS011;54618;52.018;5.576;2023-03-24T00:23:25;1.98;;;0.90;;
67819;SDS011;54618;52.018;5.576;2023-03-24T00:26:09;1.80;;;0.90;;
67819;SDS011;54618;52.018;5.576;2023-03-24T00:28:39;3.20;;;1.23;;
67819;SDS011;54618;52.018;5.576;2023-03-24T00:31:09;2.83;;;1.05;;
67819;SDS011;54618;52.018;5.576;2023-03-24T00:33:38;2.13;;;1.05;;
67819;SDS011;54618;52.018;5.576;2023-03-24T00:36:05;4.70;;;1.20;;
67819;SDS011;54618;52.018;5.576;2023-03-24T00:38:36;2.45;;;1.05;;
67819;SDS011;54618;52.018;5.576;2023-03-24T00:41:03;1.95;;;0.98;;
67819;SDS011;54618;52.018;5.576;2023-03-24T00:43:30;3.35;;;1.05;;
67819;SDS011;54618;52.018;5.576;2023-03-24T00:45:59;1.88;;;1.00;;
67819;SDS011;54618;52.018;5.576;2023-03-24T00:48:28;2.55;;;1.05;;
67819;SDS011;54618;52.018;5.576;2023-03-24T00:50:54;3.00;;;1.08;;
67819;SDS011;54618;52.018;5.576;2023-03-24T00:53:19;2.40;;;1.00;;
67819;SDS011;54618;52.018;5.576;2023-03-24T00:55:53;2.35;;;1.05;;
67819;SDS011;54618;52.018;5.576;2023-03-24T00:58:19;2.22;;;1.15;;
67819;SDS011;54618;52.018;5.576;2023-03-24T01:00:46;2.13;;;1.05;;
67819;SDS011;54618;52.018;5.576;2023-03-24T01:03:14;2.30;;;1.45;;
67819;SDS011;54618;52.018;5.576;2023-03-24T01:05:41;2.63;;;1.15;;
67819;SDS011;54618;52.018;5.576;2023-03-24T01:08:12;2.20;;;0.93;;
67819;SDS011;54618;52.018;5.576;2023-03-24T01:10:39;3.25;;;1.05;;
67819;SDS011;54618;52.018;5.576;2023-03-24T01:13:14;2.45;;;1.10;;
67819;SDS011;54618;52.018;5.576;2023-03-24T01:15:46;2.03;;;1.02;;
67819;SDS011;54618;52.018;5.576;2023-03-24T01:18:12;3.08;;;0.85;;
67819;SDS011;54618;52.018;5.576;2023-03-24T01:20:39;1.70;;;0.90;;
67819;SDS011;54618;52.018;5.576;2023-03-24T01:23:09;1.83;;;0.85;;
67819;SDS011;54618;52.018;5.576;2023-03-24T01:25:38;1.55;;;0.82;;
67819;SDS011;54618;52.018;5.576;2023-03-24T01:28:06;2.65;;;1.10;;
67819;SDS011;54618;52.018;5.576;2023-03-24T01:30:32;3.03;;;1.00;;
67819;SDS011;54618;52.018;5.576;2023-03-24T01:32:58;1.65;;;1.00;;
67819;SDS011;54618;52.018;5.576;2023-03-24T01:35:24;2.45;;;0.93;;
67819;SDS011;54618;52.018;5.576;2023-03-24T01:37:50;1.92;;;0.90;;
67819;SDS011;54618;52.018;5.576;2023-03-24T01:40:24;1.77;;;0.90;;
67819;SDS011;54618;52.018;5.576;2023-03-24T01:42:55;2.08;;;1.10;;
67819;SDS011;54618;52.018;5.576;2023-03-24T01:48:13;2.25;;;1.20;;
67819;SDS011;54618;52.018;5.576;2023-03-24T01:50:43;1.77;;;0.80;;
67819;SDS011;54618;52.018;5.576;2023-03-24T01:53:12;1.35;;;0.80;;
67819;SDS011;54618;52.018;5.576;2023-03-24T01:55:39;2.53;;;1.25;;
67819;SDS011;54618;52.018;5.576;2023-03-24T01:58:07;2.53;;;1.00;;
67819;SDS011;54618;52.018;5.576;2023-03-24T02:00:33;2.85;;;1.00;;
67819;SDS011;54618;52.018;5.576;2023-03-24T02:03:03;1.73;;;0.90;;
67819;SDS011;54618;52.018;5.576;2023-03-24T02:05:34;1.70;;;0.80;;
67819;SDS011;54618;52.018;5.576;2023-03-24T02:08:22;1.98;;;0.98;;
67819;SDS011;54618;52.018;5.576;2023-03-24T02:11:07;2.42;;;0.90;;
67819;SDS011;54618;52.018;5.576;2023-03-24T02:13:33;2.83;;;1.05;;
67819;SDS011;54618;52.018;5.576;2023-03-24T02:16:12;1.30;;;0.95;;
67819;SDS011;54618;52.018;5.576;2023-03-24T02:38:22;1.88;;;0.90;;
67819;SDS011;54618;52.018;5.576;2023-03-24T02:41:18;1.55;;;0.90;;
67819;SDS011;54618;52.018;5.576;2023-03-24T02:44:09;2.63;;;1.00;;
67819;SDS011;54618;52.018;5.576;2023-03-24T02:47:03;2.05;;;1.05;;
67819;SDS011;54618;52.018;5.576;2023-03-24T02:49:47;2.85;;;1.17;;
67819;SDS011;54618;52.018;5.576;2023-03-24T02:52:36;1.48;;;0.80;;
67819;SDS011;54618;52.018;5.576;2023-03-24T02:57:49;2.22;;;1.00;;
67819;SDS011;54618;52.018;5.576;2023-03-24T03:00:41;2.47;;;1.03;;
67819;SDS011;54618;52.018;5.576;2023-03-24T03:05:53;1.80;;;1.10;;
67819;SDS011;54618;52.018;5.576;2023-03-24T03:08:23;2.10;;;1.00;;
67819;SDS011;54618;52.018;5.576;2023-03-24T03:10:52;2.40;;;1.13;;
67819;SDS011;54618;52.018;5.576;2023-03-24T03:13:24;1.50;;;0.90;;
67819;SDS011;54618;52.018;5.576;2023-03-24T03:15:55;2.95;;;1.00;;
67819;SDS011;54618;52.018;5.576;2023-03-24T03:18:27;1.65;;;0.82;;
67819;SDS011;54618;52.018;5.576;2023-03-24T03:21:14;2.05;;;0.82;;
67819;SDS011;54618;52.018;5.576;2023-03-24T03:23:48;1.23;;;0.73;;
67819;SDS011;54618;52.018;5.576;2023-03-24T03:26:18;1.88;;;1.00;;
67819;SDS011;54618;52.018;5.576;2023-03-24T03:28:51;4.25;;;1.10;;
67819;SDS011;54618;52.018;5.576;2023-03-24T03:31:22;1.52;;;0.98;;
67819;SDS011;54618;52.018;5.576;2023-03-24T03:34:06;1.30;;;0.80;;
67819;SDS011;54618;52.018;5.576;2023-03-24T03:36:42;1.58;;;0.80;;
67819;SDS011;54618;52.018;5.576;2023-03-24T03:39:29;1.55;;;0.90;;
67819;SDS011;54618;52.018;5.576;2023-03-24T03:41:59;1.50;;;0.80;;
67819;SDS011;54618;52.018;5.576;2023-03-24T03:44:25;1.90;;;1.10;;
67819;SDS011;54618;52.018;5.576;2023-03-24T03:46:50;1.98;;;0.88;;
67819;SDS011;54618;52.018;5.576;2023-03-24T03:49:16;2.15;;;0.80;;
67819;SDS011;54618;52.018;5.576;2023-03-24T03:51:42;2.33;;;0.85;;
67819;SDS011;54618;52.018;5.576;2023-03-24T03:54:09;1.23;;;0.70;;
67819;SDS011;54618;52.018;5.576;2023-03-24T03:56:37;1.17;;;0.75;;
67819;SDS011;54618;52.018;5.576;2023-03-24T03:59:05;1.52;;;0.80;;
67819;SDS011;54618;52.018;5.576;2023-03-24T04:01:31;1.80;;;0.90;;
67819;SDS011;54618;52.018;5.576;2023-03-24T04:06:40;1.17;;;0.70;;
67819;SDS011;54618;52.018;5.576;2023-03-24T04:09:36;1.67;;;0.90;;
67819;SDS011;54618;52.018;5.576;2023-03-24T04:12:17;1.90;;;0.80;;
67819;SDS011;54618;52.018;5.576;2023-03-24T04:15:00;2.15;;;0.82;;
67819;SDS011;54618;52.018;5.576;2023-03-24T04:20:29;0.95;;;0.70;;
67819;SDS011;54618;52.018;5.576;2023-03-24T04:31:25;2.03;;;0.90;;
67819;SDS011;54618;52.018;5.576;2023-03-24T04:33:58;1.70;;;0.70;;
67819;SDS011;54618;52.018;5.576;2023-03-24T04:36:30;1.60;;;0.70;;
67819;SDS011;54618;52.018;5.576;2023-03-24T04:39:07;1.42;;;0.70;;
67819;SDS011;54618;52.018;5.576;2023-03-24T04:41:38;2.60;;;0.90;;
67819;SDS011;54618;52.018;5.576;2023-03-24T04:44:06;1.55;;;0.80;;
67819;SDS011;54618;52.018;5.576;2023-03-24T04:46:34;1.67;;;0.70;;
67819;SDS011;54618;52.018;5.576;2023-03-24T04:49:00;1.17;;;0.70;;
67819;SDS011;54618;52.018;5.576;2023-03-24T04:51:27;1.52;;;0.75;;
67819;SDS011;54618;52.018;5.576;2023-03-24T04:53:53;1.88;;;0.82;;
67819;SDS011;54618;52.018;5.576;2023-03-24T04:56:28;1.55;;;0.80;;
67819;SDS011;54618;52.018;5.576;2023-03-24T04:59:01;1.77;;;0.73;;
67819;SDS011;54618;52.018;5.576;2023-03-24T05:01:27;1.77;;;0.80;;
67819;SDS011;54618;52.018;5.576;2023-03-24T05:03:54;2.08;;;0.80;;
67819;SDS011;54618;52.018;5.576;2023-03-24T05:06:21;2.83;;;0.90;;
67819;SDS011;54618;52.018;5.576;2023-03-24T05:08:46;1.48;;;0.80;;
67819;SDS011;54618;52.018;5.576;2023-03-24T05:11:12;1.83;;;0.77;;
67819;SDS011;54618;52.018;5.576;2023-03-24T05:13:38;2.03;;;0.95;;
67819;SDS011;54618;52.018;5.576;2023-03-24T05:16:04;2.28;;;0.77;;
67819;SDS011;54618;52.018;5.576;2023-03-24T05:18:30;1.88;;;0.85;;
67819;SDS011;54618;52.018;5.576;2023-03-24T05:20:56;2.25;;;0.70;;
67819;SDS011;54618;52.018;5.576;2023-03-24T05:23:21;2.75;;;0.90;;
67819;SDS011;54618;52.018;5.576;2023-03-24T05:25:47;1.92;;;0.80;;
67819;SDS011;54618;52.018;5.576;2023-03-24T05:28:12;2.00;;;0.60;;
67819;SDS011;54618;52.018;5.576;2023-03-24T05:30:38;1.63;;;0.60;;
67819;SDS011;54618;52.018;5.576;2023-03-24T05:33:04;2.20;;;0.88;;
67819;SDS011;54618;52.018;5.576;2023-03-24T05:35:30;2.17;;;0.82;;
67819;SDS011;54618;52.018;5.576;2023-03-24T05:37:55;2.13;;;0.90;;
67819;SDS011;54618;52.018;5.576;2023-03-24T05:40:21;3.63;;;0.90;;
67819;SDS011;54618;52.018;5.576;2023-03-24T05:42:47;1.90;;;0.80;;
67819;SDS011;54618;52.018;5.576;2023-03-24T05:45:14;1.63;;;0.70;;
67819;SDS011;54618;52.018;5.576;2023-03-24T05:47:41;2.75;;;0.80;;
67819;SDS011;54618;52.018;5.576;2023-03-24T05:50:06;2.05;;;0.80;;
67819;SDS011;54618;52.018;5.576;2023-03-24T05:52:32;2.80;;;1.00;;
67819;SDS011;54618;52.018;5.576;2023-03-24T05:54:59;2.63;;;0.90;;
67819;SDS011;54618;52.018;5.576;2023-03-24T05:57:24;1.92;;;0.77;;
67819;SDS011;54618;52.018;5.576;2023-03-24T05:59:50;2.25;;;0.80;;
67819;SDS011;54618;52.018;5.576;2023-03-24T06:02:16;2.00;;;0.63;;
67819;SDS011;54618;52.018;5.576;2023-03-24T06:04:41;2.45;;;0.70;;
67819;SDS011;54618;52.018;5.576;2023-03-24T06:07:12;3.28;;;1.10;;
67819;SDS011;54618;52.018;5.576;2023-03-24T06:09:39;2.67;;;0.77;;
67819;SDS011;54618;52.018;5.576;2023-03-24T06:12:06;2.65;;;0.82;;
67819;SDS011;54618;52.018;5.576;2023-03-24T06:14:33;2.70;;;0.80;;
67819;SDS011;54618;52.018;5.576;2023-03-24T06:16:58;2.70;;;0.77;;
67819;SDS011;54618;52.018;5.576;2023-03-24T06:19:25;2.22;;;0.70;;
67819;SDS011;54618;52.018;5.576;2023-03-24T06:21:51;3.60;;;1.00;;
67819;SDS011;54618;52.018;5.576;2023-03-24T06:24:17;2.95;;;1.10;;
67819;SDS011;54618;52.018;5.576;2023-03-24T06:26:43;2.83;;;0.90;;
67819;SDS011;54618;52.018;5.576;2023-03-24T06:29:10;2.08;;;0.90;;
67819;SDS011;54618;52.018;5.576;2023-03-24T06:31:36;2.75;;;0.95;;
67819;SDS011;54618;52.018;5.576;2023-03-24T06:34:03;1.95;;;0.88;;
67819;SDS011;54618;52.018;5.576;2023-03-24T06:36:29;2.72;;;0.80;;
67819;SDS011;54618;52.018;5.576;2023-03-24T06:38:54;2.88;;;0.90;;
67819;SDS011;54618;52.018;5.576;2023-03-24T06:41:20;2.58;;;0.90;;
67819;SDS011;54618;52.018;5.576;2023-03-24T06:43:46;3.67;;;0.95;;
67819;SDS011;54618;52.018;5.576;2023-03-24T06:46:12;2.03;;;0.82;;
67819;SDS011;54618;52.018;5.576;2023-03-24T06:48:38;2.35;;;0.88;;
67819;SDS011;54618;52.018;5.576;2023-03-24T06:51:04;3.30;;;0.90;;
67819;SDS011;54618;52.018;5.576;2023-03-24T06:53:30;2.22;;;0.77;;
67819;SDS011;54618;52.018;5.576;2023-03-24T06:55:55;1.98;;;0.80;;
67819;SDS011;54618;52.018;5.576;2023-03-24T06:58:21;1.98;;;0.82;;
67819;SDS011;54618;52.018;5.576;2023-03-24T07:00:46;3.35;;;0.90;;
67819;SDS011;54618;52.018;5.576;2023-03-24T07:03:13;2.20;;;0.75;;
67819;SDS011;54618;52.018;5.576;2023-03-24T07:05:40;1.70;;;0.80;;
67819;SDS011;54618;52.018;5.576;2023-03-24T07:08:07;2.75;;;0.80;;
67819;SDS011;54618;52.018;5.576;2023-03-24T07:10:34;2.42;;;0.90;;
67819;SDS011;54618;52.018;5.576;2023-03-24T07:13:00;2.65;;;0.95;;
67819;SDS011;54618;52.018;5.576;2023-03-24T07:15:27;2.28;;;0.88;;
67819;SDS011;54618;52.018;5.576;2023-03-24T07:17:53;1.77;;;0.82;;
67819;SDS011;54618;52.018;5.576;2023-03-24T07:20:19;3.22;;;0.80;;
67819;SDS011;54618;52.018;5.576;2023-03-24T07:22:45;2.40;;;0.80;;
67819;SDS011;54618;52.018;5.576;2023-03-24T07:25:11;3.45;;;0.93;;
67819;SDS011;54618;52.018;5.576;2023-03-24T07:27:38;1.55;;;0.80;;
67819;SDS011;54618;52.018;5.576;2023-03-24T07:30:05;3.30;;;0.98;;
67819;SDS011;54618;52.018;5.576;2023-03-24T07:32:32;2.00;;;0.80;;
67819;SDS011;54618;52.018;5.576;2023-03-24T07:34:58;2.30;;;0.80;;
67819;SDS011;54618;52.018;5.576;2023-03-24T07:37:25;2.40;;;0.93;;
67819;SDS011;54618;52.018;5.576;2023-03-24T07:39:50;2.72;;;0.88;;
67819;SDS011;54618;52.018;5.576;2023-03-24T07:42:16;2.50;;;0.93;;
67819;SDS011;54618;52.018;5.576;2023-03-24T07:44:42;2.05;;;0.95;;
67819;SDS011;54618;52.018;5.576;2023-03-24T07:47:08;2.70;;;1.00;;
67819;SDS011;54618;52.018;5.576;2023-03-24T07:49:33;2.53;;;0.90;;
67819;SDS011;54618;52.018;5.576;2023-03-24T07:51:59;2.22;;;0.88;;
67819;SDS011;54618;52.018;5.576;2023-03-24T07:56:56;3.15;;;0.90;;
67819;SDS011;54618;52.018;5.576;2023-03-24T07:59:22;3.10;;;0.80;;
67819;SDS011;54618;52.018;5.576;2023-03-24T08:01:47;2.65;;;1.10;;
67819;SDS011;54618;52.018;5.576;2023-03-24T08:04:16;3.15;;;0.93;;
67819;SDS011;54618;52.018;5.576;2023-03-24T08:06:42;3.47;;;1.00;;
67819;SDS011;54618;52.018;5.576;2023-03-24T08:09:07;2.75;;;0.82;;
67819;SDS011;54618;52.018;5.576;2023-03-24T08:11:33;2.45;;;0.80;;
67819;SDS011;54618;52.018;5.576;2023-03-24T08:14:00;2.28;;;0.77;;
67819;SDS011;54618;52.018;5.576;2023-03-24T08:16:25;4.05;;;0.90;;
67819;SDS011;54618;52.018;5.576;2023-03-24T08:18:51;3.10;;;1.00;;
67819;SDS011;54618;52.018;5.576;2023-03-24T08:21:16;1.98;;;0.80;;
67819;SDS011;54618;52.018;5.576;2023-03-24T08:23:42;2.63;;;0.80;;
67819;SDS011;54618;52.018;5.576;2023-03-24T08:26:08;2.63;;;0.90;;
67819;SDS011;54618;52.018;5.576;2023-03-24T08:28:36;4.47;;;1.10;;
67819;SDS011;54618;52.018;5.576;2023-03-24T08:31:02;2.30;;;0.77;;
67819;SDS011;54618;52.018;5.576;2023-03-24T08:33:28;2.67;;;0.80;;
67819;SDS011;54618;52.018;5.576;2023-03-24T08:35:54;2.28;;;0.90;;
67819;SDS011;54618;52.018;5.576;2023-03-24T08:38:24;2.85;;;0.80;;
67819;SDS011;54618;52.018;5.576;2023-03-24T08:40:55;3.28;;;1.05;;
67819;SDS011;54618;52.018;5.576;2023-03-24T08:43:26;3.78;;;1.00;;
67819;SDS011;54618;52.018;5.576;2023-03-24T08:45:56;2.45;;;0.90;;
67819;SDS011;54618;52.018;5.576;2023-03-24T08:48:22;2.55;;;1.00;;
67819;SDS011;54618;52.018;5.576;2023-03-24T08:50:48;3.00;;;1.00;;
67819;SDS011;54618;52.018;5.576;2023-03-24T08:53:14;2.67;;;0.82;;
67819;SDS011;54618;52.018;5.576;2023-03-24T08:55:40;2.30;;;1.10;;
67819;SDS011;54618;52.018;5.576;2023-03-24T08:58:08;2.72;;;0.90;;
67819;SDS011;54618;52.018;5.576;2023-03-24T09:00:42;3.30;;;0.88;;
67819;SDS011;54618;52.018;5.576;2023-03-24T09:03:09;3.95;;;1.00;;
67819;SDS011;54618;52.018;5.576;2023-03-24T09:05:38;3.00;;;1.07;;
67819;SDS011;54618;52.018;5.576;2023-03-24T09:08:03;3.85;;;1.00;;
67819;SDS011;54618;52.018;5.576;2023-03-24T09:10:29;4.93;;;1.23;;
67819;SDS011;54618;52.018;5.576;2023-03-24T09:12:55;2.53;;;0.85;;
67819;SDS011;54618;52.018;5.576;2023-03-24T09:15:20;2.80;;;0.90;;
67819;SDS011;54618;52.018;5.576;2023-03-24T09:17:46;3.42;;;1.08;;
67819;SDS011;54618;52.018;5.576;2023-03-24T09:20:13;3.95;;;0.90;;
67819;SDS011;54618;52.018;5.576;2023-03-24T09:22:40;2.80;;;0.93;;
67819;SDS011;54618;52.018;5.576;2023-03-24T09:25:07;3.92;;;1.15;;
67819;SDS011;54618;52.018;5.576;2023-03-24T09:27:35;3.47;;;0.90;;
67819;SDS011;54618;52.018;5.576;2023-03-24T09:30:00;3.45;;;0.98;;
67819;SDS011;54618;52.018;5.576;2023-03-24T09:32:26;3.95;;;1.10;;
67819;SDS011;54618;52.018;5.576;2023-03-24T09:34:52;2.75;;;0.85;;
67819;SDS011;54618;52.018;5.576;2023-03-24T09:37:17;3.88;;;1.00;;
67819;SDS011;54618;52.018;5.576;2023-03-24T09:39:43;2.42;;;0.85;;
67819;SDS011;54618;52.018;5.576;2023-03-24T09:42:13;2.53;;;0.98;;
67819;SDS011;54618;52.018;5.576;2023-03-24T09:44:46;3.35;;;1.00;;
67819;SDS011;54618;52.018;5.576;2023-03-24T09:47:37;2.47;;;0.88;;
67819;SDS011;54618;52.018;5.576;2023-03-24T09:50:03;2.90;;;0.98;;
67819;SDS011;54618;52.018;5.576;2023-03-24T09:52:34;3.85;;;1.00;;
67819;SDS011;54618;52.018;5.576;2023-03-24T09:55:03;8.50;;;1.23;;
67819;SDS011;54618;52.018;5.576;2023-03-24T09:57:37;6.75;;;1.15;;
67819;SDS011;54618;52.018;5.576;2023-03-24T10:00:15;2.40;;;0.88;;
67819;SDS011;54618;52.018;5.576;2023-03-24T10:02:46;3.60;;;0.82;;
67819;SDS011;54618;52.018;5.576;2023-03-24T10:05:17;3.13;;;0.90;;
67819;SDS011;54618;52.018;5.576;2023-03-24T10:08:17;2.30;;;0.88;;
67819;SDS011;54618;52.018;5.576;2023-03-24T10:10:56;4.55;;;1.10;;
67819;SDS011;54618;52.018;5.576;2023-03-24T10:13:35;2.13;;;0.77;;
67819;SDS011;54618;52.018;5.576;2023-03-24T10:25:09;2.47;;;1.00;;
67819;SDS011;54618;52.018;5.576;2023-03-24T10:30:43;3.72;;;0.85;;
67819;SDS011;54618;52.018;5.576;2023-03-24T10:33:12;4.03;;;1.17;;
67819;SDS011;54618;52.018;5.576;2023-03-24T10:36:02;3.67;;;1.02;;
67819;SDS011;54618;52.018;5.576;2023-03-24T10:38:26;3.30;;;0.88;;
67819;SDS011;54618;52.018;5.576;2023-03-24T10:40:52;3.92;;;0.90;;
67819;SDS011;54618;52.018;5.576;2023-03-24T10:43:18;2.80;;;0.82;;
67819;SDS011;54618;52.018;5.576;2023-03-24T10:45:48;3.00;;;0.90;;
67819;SDS011;54618;52.018;5.576;2023-03-24T10:51:36;3.35;;;0.98;;
67819;SDS011;54618;52.018;5.576;2023-03-24T10:56:53;3.38;;;0.98;;
67819;SDS011;54618;52.018;5.576;2023-03-24T10:59:34;2.53;;;0.82;;
67819;SDS011;54618;52.018;5.576;2023-03-24T11:04:33;4.18;;;1.00;;
67819;SDS011;54618;52.018;5.576;2023-03-24T11:07:15;2.63;;;0.90;;
67819;SDS011;54618;52.018;5.576;2023-03-24T11:12:24;4.57;;;1.00;;
67819;SDS011;54618;52.018;5.576;2023-03-24T11:14:52;2.90;;;1.00;;
67819;SDS011;54618;52.018;5.576;2023-03-24T11:17:42;3.75;;;1.10;;
67819;SDS011;54618;52.018;5.576;2023-03-24T11:22:53;3.92;;;1.20;;
67819;SDS011;54618;52.018;5.576;2023-03-24T11:25:28;4.20;;;1.33;;
67819;SDS011;54618;52.018;5.576;2023-03-24T11:27:59;3.97;;;1.27;;
67819;SDS011;54618;52.018;5.576;2023-03-24T11:30:45;3.33;;;1.10;;
67819;SDS011;54618;52.018;5.576;2023-03-24T11:33:26;4.78;;;1.13;;
67819;SDS011;54618;52.018;5.576;2023-03-24T11:35:57;4.13;;;1.20;;
67819;SDS011;54618;52.018;5.576;2023-03-24T11:38:29;5.38;;;1.33;;
67819;SDS011;54618;52.018;5.576;2023-03-24T11:40:59;6.97;;;2.13;;
67819;SDS011;54618;52.018;5.576;2023-03-24T11:43:28;6.87;;;2.10;;
67819;SDS011;54618;52.018;5.576;2023-03-24T11:46:07;6.32;;;1.80;;
67819;SDS011;54618;52.018;5.576;2023-03-24T11:48:46;6.72;;;1.90;;
67819;SDS011;54618;52.018;5.576;2023-03-24T11:51:37;4.75;;;1.70;;
67819;SDS011;54618;52.018;5.576;2023-03-24T11:54:03;6.40;;;1.90;;
67819;SDS011;54618;52.018;5.576;2023-03-24T12:01:39;5.97;;;1.83;;
67819;SDS011;54618;52.018;5.576;2023-03-24T12:09:28;6.82;;;1.60;;
67819;SDS011;54618;52.018;5.576;2023-03-24T12:12:09;6.68;;;1.92;;
67819;SDS011;54618;52.018;5.576;2023-03-24T12:14:46;7.28;;;1.98;;
67819;SDS011;54618;52.018;5.576;2023-03-24T12:17:23;5.05;;;1.65;;
67819;SDS011;54618;52.018;5.576;2023-03-24T12:22:37;5.13;;;1.60;;
67819;SDS011;54618;52.018;5.576;2023-03-24T12:31:03;4.47;;;1.50;;
67819;SDS011;54618;52.018;5.576;2023-03-24T12:39:53;6.22;;;1.63;;
67819;SDS011;54618;52.018;5.576;2023-03-24T12:42:32;4.68;;;1.60;;
67819;SDS011;54618;52.018;5.576;2023-03-24T12:45:53;4.75;;;1.50;;
67819;SDS011;54618;52.018;5.576;2023-03-24T12:51:01;5.20;;;1.55;;
67819;SDS011;54618;52.018;5.576;2023-03-24T12:53:52;4.78;;;1.45;;
67819;SDS011;54618;52.018;5.576;2023-03-24T12:56:34;3.95;;;1.40;;
67819;SDS011;54618;52.018;5.576;2023-03-24T12:59:08;4.85;;;1.38;;
67819;SDS011;54618;52.018;5.576;2023-03-24T13:01:49;4.05;;;1.30;;
67819;SDS011;54618;52.018;5.576;2023-03-24T13:06:44;5.00;;;1.52;;
67819;SDS011;54618;52.018;5.576;2023-03-24T13:11:52;3.70;;;1.42;;
67819;SDS011;54618;52.018;5.576;2023-03-24T13:14:24;3.83;;;1.23;;
67819;SDS011;54618;52.018;5.576;2023-03-24T13:16:59;5.25;;;1.48;;
67819;SDS011;54618;52.018;5.576;2023-03-24T13:19:29;4.15;;;1.40;;
67819;SDS011;54618;52.018;5.576;2023-03-24T13:21:57;4.63;;;1.55;;
67819;SDS011;54618;52.018;5.576;2023-03-24T13:24:22;6.68;;;1.33;;
67819;SDS011;54618;52.018;5.576;2023-03-24T13:27:08;4.53;;;1.20;;
67819;SDS011;54618;52.018;5.576;2023-03-24T13:30:19;3.35;;;1.20;;
67819;SDS011;54618;52.018;5.576;2023-03-24T13:32:57;3.75;;;1.10;;
67819;SDS011;54618;52.018;5.576;2023-03-24T13:39:19;3.65;;;1.13;;
67819;SDS011;54618;52.018;5.576;2023-03-24T13:41:22;3.60;;;1.15;;
67819;SDS011;54618;52.018;5.576;2023-03-24T13:44:00;4.40;;;1.40;;
67819;SDS011;54618;52.018;5.576;2023-03-24T13:46:39;3.17;;;1.10;;
67819;SDS011;54618;52.018;5.576;2023-03-24T13:49:06;4.68;;;1.20;;
67819;SDS011;54618;52.018;5.576;2023-03-24T13:51:39;3.67;;;1.17;;
67819;SDS011;54618;52.018;5.576;2023-03-24T13:54:19;6.25;;;1.30;;
67819;SDS011;54618;52.018;5.576;2023-03-24T13:56:54;3.78;;;1.25;;
67819;SDS011;54618;52.018;5.576;2023-03-24T13:59:28;3.35;;;1.20;;
67819;SDS011;54618;52.018;5.576;2023-03-24T14:02:08;5.10;;;1.35;;
67819;SDS011;54618;52.018;5.576;2023-03-24T14:04:49;4.57;;;1.20;;
67819;SDS011;54618;52.018;5.576;2023-03-24T14:15:26;3.08;;;1.15;;
67819;SDS011;54618;52.018;5.576;2023-03-24T14:17:53;3.35;;;1.13;;
67819;SDS011;54618;52.018;5.576;2023-03-24T14:20:33;3.45;;;1.13;;
67819;SDS011;54618;52.018;5.576;2023-03-24T14:23:00;3.20;;;0.90;;
67819;SDS011;54618;52.018;5.576;2023-03-24T14:25:30;4.32;;;1.35;;
67819;SDS011;54618;52.018;5.576;2023-03-24T14:28:13;4.32;;;1.33;;
67819;SDS011;54618;52.018;5.576;2023-03-24T14:31:02;5.57;;;1.20;;
67819;SDS011;54618;52.018;5.576;2023-03-24T14:33:33;4.60;;;1.13;;
67819;SDS011;54618;52.018;5.576;2023-03-24T14:36:03;3.25;;;1.00;;
67819;SDS011;54618;52.018;5.576;2023-03-24T14:38:39;2.47;;;0.90;;
67819;SDS011;54618;52.018;5.576;2023-03-24T14:41:07;4.88;;;1.20;;
67819;SDS011;54618;52.018;5.576;2023-03-24T14:54:15;3.63;;;1.10;;
67819;SDS011;54618;52.018;5.576;2023-03-24T14:56:48;3.72;;;1.20;;
67819;SDS011;54618;52.018;5.576;2023-03-24T15:03:13;3.00;;;0.93;;
67819;SDS011;54618;52.018;5.576;2023-03-24T15:08:28;3.60;;;1.10;;
67819;SDS011;54618;52.018;5.576;2023-03-24T15:10:35;2.90;;;1.02;;
67819;SDS011;54618;52.018;5.576;2023-03-24T15:13:04;2.58;;;0.90;;
67819;SDS011;54618;52.018;5.576;2023-03-24T15:15:30;2.58;;;1.08;;
67819;SDS011;54618;52.018;5.576;2023-03-24T15:17:55;4.47;;;1.20;;
67819;SDS011;54618;52.018;5.576;2023-03-24T15:20:22;3.10;;;1.10;;
67819;SDS011;54618;52.018;5.576;2023-03-24T15:22:49;2.58;;;1.00;;
67819;SDS011;54618;52.018;5.576;2023-03-24T15:25:19;3.08;;;0.98;;
67819;SDS011;54618;52.018;5.576;2023-03-24T15:27:53;3.35;;;0.93;;
67819;SDS011;54618;52.018;5.576;2023-03-24T15:30:20;4.35;;;1.00;;
67819;SDS011;54618;52.018;5.576;2023-03-24T15:32:46;2.33;;;0.80;;
67819;SDS011;54618;52.018;5.576;2023-03-24T15:35:22;2.55;;;1.00;;
67819;SDS011;54618;52.018;5.576;2023-03-24T15:37:49;2.65;;;0.95;;
67819;SDS011;54618;52.018;5.576;2023-03-24T15:40:29;2.83;;;1.00;;
67819;SDS011;54618;52.018;5.576;2023-03-24T15:42:57;2.97;;;0.90;;
67819;SDS011;54618;52.018;5.576;2023-03-24T15:45:26;3.08;;;0.85;;
67819;SDS011;54618;52.018;5.576;2023-03-24T15:47:54;2.67;;;0.88;;
67819;SDS011;54618;52.018;5.576;2023-03-24T15:50:31;2.60;;;0.95;;
67819;SDS011;54618;52.018;5.576;2023-03-24T15:53:00;2.15;;;0.73;;
67819;SDS011;54618;52.018;5.576;2023-03-24T15:55:30;2.35;;;0.77;;
67819;SDS011;54618;52.018;5.576;2023-03-24T16:00:29;3.08;;;0.93;;
67819;SDS011;54618;52.018;5.576;2023-03-24T16:03:03;3.17;;;0.90;;
67819;SDS011;54618;52.018;5.576;2023-03-24T16:05:31;72.68;;;15.75;;
67819;SDS011;54618;52.018;5.576;2023-03-24T16:07:58;220.90;;;44.92;;
67819;SDS011;54618;52.018;5.576;2023-03-24T16:10:29;129.15;;;26.75;;
67819;SDS011;54618;52.018;5.576;2023-03-24T16:13:19;145.27;;;33.60;;
67819;SDS011;54618;52.018;5.576;2023-03-24T16:15:51;166.40;;;34.57;;
67819;SDS011;54618;52.018;5.576;2023-03-24T16:18:33;164.07;;;36.40;;
67819;SDS011;54618;52.018;5.576;2023-03-24T16:21:02;161.65;;;34.60;;
67819;SDS011;54618;52.018;5.576;2023-03-24T16:23:34;157.13;;;33.22;;
67819;SDS011;54618;52.018;5.576;2023-03-24T16:26:00;143.63;;;32.53;;
67819;SDS011;54618;52.018;5.576;2023-03-24T16:28:25;132.38;;;32.15;;
67819;SDS011;54618;52.018;5.576;2023-03-24T16:30:59;132.25;;;31.10;;
67819;SDS011;54618;52.018;5.576;2023-03-24T16:33:26;114.20;;;30.02;;
67819;SDS011;54618;52.018;5.576;2023-03-24T16:35:54;124.15;;;28.80;;
67819;SDS011;54618;52.018;5.576;2023-03-24T16:38:20;113.72;;;28.40;;
67819;SDS011;54618;52.018;5.576;2023-03-24T16:40:48;103.00;;;27.30;;
67819;SDS011;54618;52.018;5.576;2023-03-24T16:43:14;96.78;;;26.45;;
67819;SDS011;54618;52.018;5.576;2023-03-24T16:45:40;101.70;;;27.42;;
67819;SDS011;54618;52.018;5.576;2023-03-24T16:48:09;116.13;;;26.45;;
67819;SDS011;54618;52.018;5.576;2023-03-24T16:50:36;90.90;;;25.23;;
67819;SDS011;54618;52.018;5.576;2023-03-24T16:53:04;92.65;;;24.15;;
67819;SDS011;54618;52.018;5.576;2023-03-24T16:55:30;91.18;;;24.35;;
67819;SDS011;54618;52.018;5.576;2023-03-24T16:57:56;94.72;;;24.08;;
67819;SDS011;54618;52.018;5.576;2023-03-24T17:00:21;78.18;;;23.52;;
67819;SDS011;54618;52.018;5.576;2023-03-24T17:02:47;87.80;;;22.83;;
67819;SDS011;54618;52.018;5.576;2023-03-24T17:05:18;86.15;;;22.58;;
67819;SDS011;54618;52.018;5.576;2023-03-24T17:07:51;87.43;;;23.02;;
67819;SDS011;54618;52.018;5.576;2023-03-24T17:10:17;79.47;;;21.10;;
67819;SDS011;54618;52.018;5.576;2023-03-24T17:12:43;81.28;;;22.13;;
67819;SDS011;54618;52.018;5.576;2023-03-24T17:15:21;76.75;;;21.27;;
67819;SDS011;54618;52.018;5.576;2023-03-24T17:17:51;71.60;;;19.70;;
67819;SDS011;54618;52.018;5.576;2023-03-24T17:20:17;74.25;;;20.20;;